createdAt,value
2023-04-24T00:02:59.458Z,91.19
2023-04-24T00:08:03.403Z,91.37
2023-04-24T00:13:07.053Z,91.59
2023-04-24T00:18:10.722Z,91.93
2023-04-24T00:23:14.430Z,91.93
2023-04-24T00:28:18.120Z,92.06
2023-04-24T00:33:21.892Z,92.12
2023-04-24T00:38:25.859Z,92.26
2023-04-24T00:43:29.437Z,92.30
2023-04-24T00:48:33.306Z,92.37
2023-04-24T00:53:36.993Z,92.27
2023-04-24T00:58:41.412Z,92.43
2023-04-24T01:03:46.142Z,92.52
2023-04-24T01:08:50.377Z,92.66
2023-04-24T01:13:54.050Z,93.12
2023-04-24T01:18:57.857Z,93.50
2023-04-24T01:24:01.688Z,93.70
2023-04-24T01:29:05.431Z,94.18
2023-04-24T01:34:09.528Z,94.17
2023-04-24T01:39:14.109Z,94.56
2023-04-24T01:44:19.265Z,94.57
2023-04-24T01:49:23.382Z,94.57
2023-04-24T01:54:27.157Z,94.70
2023-04-24T01:59:34.946Z,94.78
2023-04-24T02:04:38.860Z,94.76
2023-04-24T02:09:42.920Z,94.72
2023-04-24T02:14:46.934Z,94.91
2023-04-24T02:19:50.876Z,94.88
2023-04-24T02:24:54.610Z,95.16
2023-04-24T02:29:58.410Z,95.84
2023-04-24T02:35:02.741Z,96.92
2023-04-24T02:40:07.248Z,97.50
2023-04-24T02:45:11.612Z,97.77
2023-04-24T02:50:15.334Z,98.21
2023-04-24T02:55:19.175Z,98.60
2023-04-24T03:00:23.177Z,98.62
2023-04-24T03:05:26.832Z,98.62
2023-04-24T03:10:30.840Z,98.67
2023-04-24T03:15:34.844Z,98.55
2023-04-24T03:20:38.844Z,98.56
2023-04-24T03:25:44.118Z,98.97
2023-04-24T03:30:48.741Z,99.32
2023-04-24T03:35:54.064Z,99.61
2023-04-24T03:40:57.922Z,99.93
2023-04-24T03:46:15.292Z,100.00
2023-04-24T03:51:24.278Z,100.00
2023-04-24T03:56:30.219Z,100.00
2023-04-24T04:01:37.962Z,100.00
2023-04-24T04:06:52.515Z,100.00
2023-04-24T04:11:56.563Z,100.00
2023-04-24T04:17:00.342Z,100.00
2023-04-24T04:22:04.226Z,100.00
2023-04-24T04:27:19.958Z,100.00
2023-04-24T04:32:36.473Z,99.94
2023-04-24T04:37:41.553Z,99.57
2023-04-24T04:43:20.487Z,99.67
2023-04-24T04:48:30.047Z,99.86
2023-04-24T04:53:36.387Z,99.81
2023-04-24T04:58:40.654Z,99.61
2023-04-24T05:03:47.414Z,98.71
2023-04-24T05:08:57.344Z,98.04
2023-04-24T05:14:10.764Z,97.78
2023-04-24T05:19:16.209Z,97.31
2023-04-24T05:24:22.723Z,96.32
2023-04-24T05:29:45.489Z,95.86
2023-04-24T05:34:51.038Z,95.17
2023-04-24T05:39:55.932Z,94.94
2023-04-24T05:45:00.774Z,95.03
2023-04-24T05:50:04.755Z,94.52
2023-04-24T05:55:09.309Z,93.82
2023-04-24T06:00:15.602Z,93.92
2023-04-24T06:05:22.431Z,93.39
2023-04-24T06:10:26.942Z,93.11
2023-04-24T06:15:34.660Z,92.95
2023-04-24T06:20:53.736Z,92.23
2023-04-24T06:25:57.748Z,91.68
2023-04-24T06:31:01.557Z,91.48
2023-04-24T06:36:05.861Z,91.11
2023-04-24T06:41:09.547Z,89.98
2023-04-24T06:46:13.571Z,89.94
2023-04-24T06:51:18.881Z,89.65
2023-04-24T06:56:22.757Z,89.40
2023-04-24T07:01:26.841Z,89.43
2023-04-24T07:06:33.131Z,89.52
2023-04-24T07:11:38.210Z,89.33
2023-04-24T07:16:42.006Z,88.59
2023-04-24T07:21:46.178Z,88.32
2023-04-24T07:26:49.953Z,88.60
2023-04-24T07:31:55.377Z,87.94
2023-04-24T07:36:59.169Z,87.85
2023-04-24T07:42:04.734Z,87.34
2023-04-24T07:47:08.441Z,87.42
2023-04-24T07:52:12.133Z,86.81
2023-04-24T07:57:15.953Z,85.48
2023-04-24T08:02:19.719Z,84.93
2023-04-24T08:07:25.798Z,84.19
2023-04-24T08:12:30.642Z,84.14
2023-04-24T08:17:38.193Z,83.44
2023-04-24T08:22:42.914Z,83.47
2023-04-24T08:27:46.737Z,83.24
2023-04-24T08:32:50.499Z,82.38
2023-04-24T08:37:55.288Z,82.52
2023-04-24T08:42:59.944Z,82.47
2023-04-24T08:48:04.175Z,82.84
2023-04-24T08:53:09.042Z,83.95
2023-04-24T08:58:13.500Z,85.73
2023-04-24T09:03:18.527Z,85.89
2023-04-24T09:08:25.859Z,84.52
2023-04-24T09:13:30.114Z,82.74
2023-04-24T09:18:35.155Z,82.06
2023-04-24T09:23:38.972Z,83.00
2023-04-24T09:28:42.677Z,82.51
2023-04-24T09:33:59.072Z,80.98
2023-04-24T09:39:17.030Z,81.15
2023-04-24T09:44:23.025Z,80.91
2023-04-24T09:49:31.420Z,80.72
2023-04-24T09:54:35.258Z,79.70
2023-04-24T09:59:48.103Z,79.04
2023-04-24T10:05:01.331Z,78.63
2023-04-24T10:10:06.434Z,78.40
2023-04-24T10:15:13.785Z,77.66
2023-04-24T10:20:17.731Z,77.77
2023-04-24T10:25:23.094Z,77.08
2023-04-24T10:30:37.845Z,77.56
2023-04-24T10:35:49.288Z,77.38
2023-04-24T10:40:53.124Z,77.27
2023-04-24T10:46:07.472Z,77.72
2023-04-24T10:51:15.555Z,78.00
2023-04-24T10:56:19.686Z,77.15
2023-04-24T11:01:28.233Z,76.14
2023-04-24T11:06:37.408Z,76.05
2023-04-24T11:11:47.438Z,75.99
2023-04-24T11:16:58.811Z,76.35
2023-04-24T11:22:05.232Z,75.53
2023-04-24T11:27:15.645Z,75.96
2023-04-24T11:32:28.768Z,76.34
2023-04-24T11:37:38.202Z,75.20
2023-04-24T11:42:46.306Z,75.33
2023-04-24T11:47:50.332Z,74.93
2023-04-24T11:52:54.934Z,74.48
2023-04-24T11:58:00.629Z,73.48
2023-04-24T12:03:13.617Z,73.36
2023-04-24T12:08:38.210Z,73.25
2023-04-24T12:13:42.476Z,72.78
2023-04-24T12:18:47.379Z,73.04
2023-04-24T12:23:52.290Z,72.81
2023-04-24T12:28:56.182Z,72.39
2023-04-24T12:34:00.024Z,73.16
2023-04-24T12:39:03.802Z,73.43
2023-04-24T12:44:12.028Z,73.35
2023-04-24T12:49:15.739Z,73.48
2023-04-24T12:54:19.474Z,73.73
2023-04-24T12:59:23.436Z,73.75
2023-04-24T13:04:27.205Z,73.56
2023-04-24T13:09:31.859Z,74.25
2023-04-24T13:14:36.094Z,76.47
2023-04-24T13:19:41.875Z,78.20
2023-04-24T13:24:51.714Z,78.24
2023-04-24T13:29:55.457Z,77.97
2023-04-24T13:34:59.369Z,78.64
2023-04-24T13:40:03.306Z,78.94
2023-04-24T13:45:23.423Z,79.49
2023-04-24T13:50:28.423Z,79.77
2023-04-24T13:55:32.512Z,80.32
2023-04-24T14:00:36.659Z,80.58
2023-04-24T14:05:40.515Z,81.28
2023-04-24T14:10:44.334Z,81.51
2023-04-24T14:15:48.384Z,81.21
2023-04-24T14:20:52.164Z,81.19
2023-04-24T14:25:56.078Z,80.88
2023-04-24T14:31:00.065Z,80.39
2023-04-24T14:36:06.921Z,80.82
2023-04-24T14:41:14.320Z,81.31
2023-04-24T14:46:21.806Z,81.49
2023-04-24T14:51:26.947Z,81.65
2023-04-24T14:56:35.202Z,81.91
2023-04-24T15:01:39.244Z,82.55
2023-04-24T15:06:43.830Z,82.82
2023-04-24T15:11:48.346Z,82.63
2023-04-24T15:16:52.716Z,83.04
2023-04-24T15:21:56.576Z,83.69
2023-04-24T15:27:02.885Z,83.72
2023-04-24T15:32:08.877Z,84.33
2023-04-24T15:37:14.026Z,84.84
2023-04-24T15:42:18.008Z,85.12
2023-04-24T15:47:22.034Z,85.86
2023-04-24T15:52:26.139Z,86.00
2023-04-24T15:57:29.878Z,86.78
2023-04-24T16:02:34.924Z,86.99
2023-04-24T16:07:41.385Z,87.25
2023-04-24T16:12:45.329Z,87.36
2023-04-24T16:17:50.573Z,87.69
2023-04-24T16:22:54.452Z,88.18
2023-04-24T16:27:58.881Z,88.67
2023-04-24T16:33:07.592Z,89.10
2023-04-24T16:38:12.434Z,89.40
2023-04-24T16:43:16.323Z,90.04
2023-04-24T16:48:20.264Z,90.71
2023-04-24T16:53:24.028Z,91.34
2023-04-24T16:58:27.913Z,91.86
2023-04-24T17:03:32.841Z,92.21
2023-04-24T17:08:37.559Z,92.69
2023-04-24T17:13:41.977Z,93.18
2023-04-24T17:18:47.627Z,93.54
2023-04-24T17:23:53.675Z,93.90
2023-04-24T17:28:58.277Z,94.18
2023-04-24T17:34:05.891Z,94.56
2023-04-24T17:39:11.477Z,94.89
2023-04-24T17:44:16.637Z,95.35
2023-04-24T17:49:22.538Z,95.48
2023-04-24T17:54:30.140Z,95.80
2023-04-24T17:59:35.706Z,96.09
2023-04-24T18:04:41.518Z,96.29
2023-04-24T18:09:47.150Z,96.75
2023-04-24T18:14:59.794Z,96.90
2023-04-24T18:20:13.542Z,97.32
2023-04-24T18:25:22.469Z,97.64
2023-04-24T18:30:28.637Z,98.01
2023-04-24T18:35:33.790Z,98.39
2023-04-24T18:40:38.790Z,98.71
2023-04-24T18:45:44.348Z,99.06
2023-04-24T18:50:51.906Z,99.23
2023-04-24T18:55:58.289Z,99.32
2023-04-24T19:01:02.647Z,99.62
2023-04-24T19:06:20.223Z,99.93
2023-04-24T19:11:26.922Z,99.92
2023-04-24T19:16:32.258Z,100.00
2023-04-24T19:21:37.580Z,100.00
2023-04-24T19:26:42.694Z,100.00
2023-04-24T19:31:49.266Z,100.00
2023-04-24T19:36:57.119Z,100.00
2023-04-24T19:42:05.862Z,100.00
2023-04-24T19:47:14.380Z,100.00
2023-04-24T19:52:18.528Z,100.00
2023-04-24T19:57:23.209Z,100.00
2023-04-24T20:02:28.252Z,100.00
2023-04-24T20:07:32.484Z,100.00
2023-04-24T20:12:38.332Z,100.00
2023-04-24T20:17:42.274Z,100.00
2023-04-24T20:22:46.497Z,100.00
2023-04-24T20:27:51.049Z,100.00
2023-04-24T20:32:55.041Z,100.00
2023-04-24T20:37:59.888Z,100.00
2023-04-24T20:43:04.964Z,100.00
2023-04-24T20:48:10.502Z,100.00
2023-04-24T20:53:14.298Z,100.00
2023-04-24T20:58:22.540Z,100.00
2023-04-24T21:03:27.708Z,100.00
2023-04-24T21:08:31.605Z,100.00
2023-04-24T21:13:35.433Z,100.00
2023-04-24T21:18:41.489Z,100.00
2023-04-24T21:23:46.532Z,100.00
2023-04-24T21:28:52.069Z,100.00
2023-04-24T21:33:56.517Z,100.00
2023-04-24T21:39:00.294Z,100.00
2023-04-24T21:44:04.298Z,100.00
2023-04-24T21:49:08.122Z,100.00
2023-04-24T21:54:12.071Z,100.00
2023-04-24T21:59:16.014Z,100.00
2023-04-24T22:04:20.449Z,100.00
2023-04-24T22:09:24.990Z,100.00
2023-04-24T22:14:28.745Z,100.00
2023-04-24T22:19:32.627Z,100.00
2023-04-24T22:24:36.998Z,100.00
2023-04-24T22:29:41.183Z,100.00
2023-04-24T22:34:45.173Z,99.74
2023-04-24T22:39:49.934Z,99.43
2023-04-24T22:44:54.428Z,99.34
2023-04-24T22:49:58.936Z,99.48
2023-04-24T22:55:03.290Z,99.25
2023-04-24T23:00:11.551Z,99.20
2023-04-24T23:05:15.403Z,99.24
2023-04-24T23:10:19.241Z,99.25
2023-04-24T23:15:23.075Z,98.83
2023-04-24T23:20:27.310Z,98.50
2023-04-24T23:25:33.089Z,98.34
2023-04-24T23:30:37.101Z,98.16
2023-04-24T23:35:42.375Z,98.08
2023-04-24T23:40:46.277Z,97.96
2023-04-24T23:45:50.044Z,98.07
2023-04-24T23:50:53.896Z,98.00
2023-04-24T23:55:57.668Z,98.12
